createdAt,value
2022-10-05T00:00:25.916Z,17.20
2022-10-05T00:02:56.476Z,17.20
2022-10-05T00:05:30.265Z,17.20
2022-10-05T00:08:08.563Z,17.10
2022-10-05T00:10:38.430Z,17.10
2022-10-05T00:13:09.141Z,17.20
2022-10-05T00:15:39.290Z,17.20
2022-10-05T00:18:14.004Z,17.20
2022-10-05T00:20:44.334Z,17.20
2022-10-05T00:23:20.931Z,17.20
2022-10-05T00:25:50.838Z,17.20
2022-10-05T00:28:21.785Z,17.20
2022-10-05T00:30:52.110Z,17.10
2022-10-05T00:33:21.881Z,17.10
2022-10-05T00:35:51.726Z,17.10
2022-10-05T00:38:24.206Z,17.10
2022-10-05T00:41:01.742Z,17.10
2022-10-05T00:43:40.856Z,17.10
2022-10-05T00:46:15.316Z,17.10
2022-10-05T00:48:48.217Z,17.00
2022-10-05T00:51:26.962Z,17.00
2022-10-05T00:54:09.406Z,17.00
2022-10-05T00:56:48.643Z,17.00
2022-10-05T00:59:25.112Z,17.00
2022-10-05T01:01:58.607Z,17.00
2022-10-05T01:04:31.477Z,17.00
2022-10-05T01:07:07.472Z,16.90
2022-10-05T01:09:45.048Z,16.90
2022-10-05T01:12:19.537Z,17.00
2022-10-05T01:14:53.906Z,17.00
2022-10-05T01:17:26.378Z,17.00
2022-10-05T01:20:17.913Z,17.00
2022-10-05T01:22:56.072Z,17.00
2022-10-05T01:25:33.270Z,18.40
2022-10-05T01:28:11.451Z,16.90
2022-10-05T01:30:45.686Z,16.80
2022-10-05T01:33:18.901Z,16.80
2022-10-05T01:35:54.345Z,16.90
2022-10-05T01:38:32.600Z,16.90
2022-10-05T01:41:09.229Z,16.90
2022-10-05T01:43:45.686Z,16.90
2022-10-05T01:46:21.610Z,16.90
2022-10-05T01:48:56.383Z,16.80
2022-10-05T01:51:30.754Z,16.80
2022-10-05T01:54:04.467Z,16.80
2022-10-05T01:56:37.038Z,16.80
2022-10-05T01:59:16.637Z,16.80
2022-10-05T02:01:51.686Z,16.80
2022-10-05T02:04:56.480Z,16.80
2022-10-05T02:07:19.549Z,16.70
2022-10-05T02:09:51.962Z,16.70
2022-10-05T02:12:23.766Z,16.70
2022-10-05T02:14:58.766Z,16.70
2022-10-05T02:17:31.082Z,16.60
2022-10-05T02:20:02.842Z,16.60
2022-10-05T02:22:35.335Z,16.60
2022-10-05T02:25:07.658Z,16.70
2022-10-05T02:27:39.815Z,16.70
2022-10-05T02:30:16.570Z,16.80
2022-10-05T02:32:50.279Z,16.80
2022-10-05T02:35:21.333Z,16.70
2022-10-05T02:37:57.273Z,16.70
2022-10-05T02:40:31.696Z,16.70
2022-10-05T02:43:04.534Z,16.70
2022-10-05T02:45:43.799Z,16.80
2022-10-05T02:48:15.977Z,16.80
2022-10-05T02:50:48.570Z,16.70
2022-10-05T02:53:23.658Z,16.80
2022-10-05T02:55:59.639Z,16.70
2022-10-05T02:58:31.366Z,16.80
2022-10-05T03:01:07.783Z,16.70
2022-10-05T03:03:40.517Z,16.60
2022-10-05T03:06:13.751Z,16.60
2022-10-05T03:08:47.046Z,16.60
2022-10-05T03:11:21.284Z,16.60
2022-10-05T03:13:53.077Z,16.60
2022-10-05T03:16:41.011Z,16.60
2022-10-05T03:19:18.832Z,16.60
2022-10-05T03:21:55.553Z,16.60
2022-10-05T03:24:34.797Z,16.60
2022-10-05T03:27:09.194Z,16.60
2022-10-05T03:29:43.478Z,16.50
2022-10-05T03:32:18.620Z,16.50
2022-10-05T03:34:55.724Z,16.50
2022-10-05T03:37:31.056Z,16.40
2022-10-05T03:40:04.266Z,16.40
2022-10-05T03:42:37.762Z,16.30
2022-10-05T03:45:12.228Z,16.40
2022-10-05T03:47:44.796Z,16.40
2022-10-05T03:50:35.342Z,16.40
2022-10-05T03:53:08.956Z,16.40
2022-10-05T03:55:39.937Z,16.40
2022-10-05T03:58:12.873Z,16.30
2022-10-05T04:00:43.511Z,16.30
2022-10-05T04:03:15.566Z,16.30
2022-10-05T04:05:48.614Z,16.30
2022-10-05T04:08:24.560Z,16.30
2022-10-05T04:10:56.947Z,16.40
2022-10-05T04:13:30.118Z,15.70
2022-10-05T04:16:02.714Z,16.40
2022-10-05T04:18:34.188Z,16.40
2022-10-05T04:21:05.489Z,16.40
2022-10-05T04:23:53.013Z,16.40
2022-10-05T04:26:27.846Z,16.30
2022-10-05T04:28:59.347Z,16.40
2022-10-05T04:31:35.529Z,16.40
2022-10-05T04:34:09.956Z,16.50
2022-10-05T04:36:44.988Z,16.40
2022-10-05T04:39:21.953Z,16.40
2022-10-05T04:41:56.140Z,16.30
2022-10-05T04:44:32.481Z,16.30
2022-10-05T04:47:22.788Z,16.40
2022-10-05T04:50:01.892Z,16.40
2022-10-05T04:52:37.887Z,16.40
2022-10-05T04:55:15.385Z,16.30
2022-10-05T04:57:50.921Z,16.20
2022-10-05T05:00:25.538Z,16.30
2022-10-05T05:03:11.149Z,16.30
2022-10-05T05:06:12.020Z,16.30
2022-10-05T05:08:44.584Z,16.30
2022-10-05T05:11:24.386Z,16.30
2022-10-05T05:14:12.050Z,16.30
2022-10-05T05:16:43.116Z,16.30
2022-10-05T05:19:18.300Z,16.20
2022-10-05T05:21:52.737Z,16.20
2022-10-05T05:24:26.399Z,16.20
2022-10-05T05:27:12.067Z,16.20
2022-10-05T05:29:46.537Z,16.20
2022-10-05T05:32:21.267Z,16.20
2022-10-05T05:34:59.518Z,16.30
2022-10-05T05:37:34.384Z,16.30
2022-10-05T05:40:08.882Z,16.30
2022-10-05T05:42:47.082Z,16.30
2022-10-05T05:45:19.572Z,16.30
2022-10-05T05:47:54.016Z,16.30
2022-10-05T05:50:32.380Z,16.30
2022-10-05T05:53:06.230Z,16.30
2022-10-05T05:55:38.453Z,16.30
2022-10-05T05:58:14.208Z,16.20
2022-10-05T06:00:45.988Z,16.20
2022-10-05T06:03:19.640Z,16.20
2022-10-05T06:05:52.356Z,16.20
2022-10-05T06:08:26.404Z,16.20
2022-10-05T06:10:58.194Z,16.20
2022-10-05T06:13:33.329Z,16.30
2022-10-05T06:16:07.704Z,16.30
2022-10-05T06:18:39.410Z,16.30
2022-10-05T06:21:14.008Z,16.20
2022-10-05T06:23:46.329Z,17.20
2022-10-05T06:26:27.484Z,16.30
2022-10-05T06:29:01.608Z,16.30
2022-10-05T06:31:37.729Z,16.40
2022-10-05T06:34:14.875Z,16.30
2022-10-05T06:36:47.601Z,16.40
2022-10-05T06:39:34.833Z,15.00
2022-10-05T06:42:13.741Z,16.40
2022-10-05T06:44:50.631Z,16.40
2022-10-05T06:47:23.969Z,16.40
2022-10-05T06:49:56.857Z,16.50
2022-10-05T06:52:29.111Z,16.50
2022-10-05T06:55:10.679Z,16.50
2022-10-05T06:57:57.471Z,16.60
2022-10-05T07:00:32.867Z,16.70
2022-10-05T07:03:06.341Z,16.80
2022-10-05T07:05:50.877Z,16.80
2022-10-05T07:08:23.199Z,16.80
2022-10-05T07:11:02.985Z,16.80
2022-10-05T07:13:41.630Z,16.70
2022-10-05T07:16:16.770Z,16.70
2022-10-05T07:18:51.922Z,16.70
2022-10-05T07:21:26.427Z,16.80
2022-10-05T07:24:01.620Z,16.90
2022-10-05T07:26:35.240Z,16.90
2022-10-05T07:29:22.156Z,17.00
2022-10-05T07:32:04.396Z,17.10
2022-10-05T07:34:41.976Z,17.20
2022-10-05T07:37:27.292Z,17.30
2022-10-05T07:40:01.158Z,17.20
2022-10-05T07:42:46.050Z,17.30
2022-10-05T07:45:24.810Z,17.20
2022-10-05T07:47:58.266Z,17.30
2022-10-05T07:50:31.293Z,17.30
2022-10-05T07:53:03.712Z,17.30
2022-10-05T07:55:36.552Z,17.30
2022-10-05T07:58:11.392Z,17.30
2022-10-05T08:00:48.346Z,17.20
2022-10-05T08:03:23.394Z,17.30
2022-10-05T08:05:53.391Z,17.30
2022-10-05T08:08:26.161Z,17.20
2022-10-05T08:11:00.614Z,17.20
2022-10-05T08:13:36.204Z,17.30
2022-10-05T08:16:08.650Z,17.40
2022-10-05T08:18:48.596Z,17.50
2022-10-05T08:21:20.478Z,17.60
2022-10-05T08:23:54.373Z,18.50
2022-10-05T08:26:27.221Z,17.70
2022-10-05T08:29:01.692Z,17.60
2022-10-05T08:31:34.727Z,17.60
2022-10-05T08:34:13.339Z,17.60
2022-10-05T08:36:54.117Z,17.60
2022-10-05T08:39:25.991Z,17.60
2022-10-05T08:42:05.541Z,17.60
2022-10-05T08:44:49.181Z,17.60
2022-10-05T08:47:22.637Z,17.70
2022-10-05T08:50:10.663Z,17.70
2022-10-05T08:52:51.634Z,17.70
2022-10-05T08:55:34.334Z,17.70
2022-10-05T08:58:16.104Z,17.80
2022-10-05T09:00:51.880Z,17.90
2022-10-05T09:03:34.733Z,17.80
2022-10-05T09:06:14.725Z,17.90
2022-10-05T09:09:03.498Z,18.00
2022-10-05T09:11:39.168Z,18.10
2022-10-05T09:14:29.843Z,18.10
2022-10-05T09:17:14.350Z,18.20
2022-10-05T09:19:55.551Z,18.20
2022-10-05T09:22:34.031Z,18.20
2022-10-05T09:25:13.812Z,18.10
2022-10-05T09:27:51.265Z,18.10
2022-10-05T09:30:37.498Z,18.20
2022-10-05T09:33:26.189Z,18.20
2022-10-05T09:36:11.159Z,18.20
2022-10-05T09:38:50.953Z,18.20
2022-10-05T09:41:42.001Z,18.20
2022-10-05T09:44:22.564Z,18.20
2022-10-05T09:47:15.303Z,18.30
2022-10-05T09:49:59.958Z,18.40
2022-10-05T09:52:49.505Z,18.60
2022-10-05T09:55:49.181Z,18.80
2022-10-05T09:58:41.392Z,18.80
2022-10-05T10:01:33.557Z,18.90
2022-10-05T10:04:16.796Z,19.10
2022-10-05T10:06:56.748Z,19.40
2022-10-05T10:09:33.094Z,19.60
2022-10-05T10:12:17.847Z,19.50
2022-10-05T10:15:12.118Z,19.40
2022-10-05T10:18:01.842Z,19.60
2022-10-05T10:20:42.824Z,19.80
2022-10-05T10:23:27.287Z,20.10
2022-10-05T10:26:12.423Z,20.10
2022-10-05T10:28:52.267Z,20.20
2022-10-05T10:31:36.737Z,20.20
2022-10-05T10:34:13.495Z,20.00
2022-10-05T10:36:54.168Z,19.90
2022-10-05T10:39:27.420Z,19.70
2022-10-05T10:42:06.824Z,19.70
2022-10-05T10:44:44.458Z,19.60
2022-10-05T10:47:28.145Z,19.60
2022-10-05T10:50:10.906Z,19.80
2022-10-05T10:52:53.613Z,20.70
2022-10-05T10:55:44.196Z,21.10
2022-10-05T10:58:37.824Z,21.20
2022-10-05T11:01:14.032Z,20.90
2022-10-05T11:03:58.654Z,20.50
2022-10-05T11:06:37.148Z,20.50
2022-10-05T11:09:21.698Z,20.60
2022-10-05T11:12:11.341Z,20.30
2022-10-05T11:15:02.973Z,20.30
2022-10-05T11:17:46.936Z,20.30
2022-10-05T11:20:28.181Z,20.40
2022-10-05T11:23:00.565Z,20.70
2022-10-05T11:25:45.181Z,21.30
2022-10-05T11:28:29.971Z,20.80
2022-10-05T11:31:15.314Z,20.70
2022-10-05T11:33:54.911Z,20.60
2022-10-05T11:36:50.288Z,20.40
2022-10-05T11:39:38.788Z,20.40
2022-10-05T11:42:26.457Z,20.50
2022-10-05T11:45:14.458Z,20.40
2022-10-05T11:47:51.983Z,20.30
2022-10-05T11:50:23.892Z,20.30
2022-10-05T11:52:57.015Z,20.30
2022-10-05T11:55:28.715Z,20.30
2022-10-05T11:58:01.726Z,20.30
2022-10-05T12:00:34.541Z,20.40
2022-10-05T12:03:27.232Z,20.70
2022-10-05T12:06:09.933Z,20.90
2022-10-05T12:08:43.927Z,21.00
2022-10-05T12:11:18.940Z,21.00
2022-10-05T12:13:51.354Z,21.00
2022-10-05T12:16:23.741Z,21.00
2022-10-05T12:19:00.100Z,21.00
2022-10-05T12:21:36.794Z,20.80
2022-10-05T12:24:11.803Z,20.70
2022-10-05T12:26:44.873Z,20.70
2022-10-05T12:29:16.897Z,20.60
2022-10-05T12:31:52.193Z,20.60
2022-10-05T12:34:29.179Z,20.50
2022-10-05T12:37:05.197Z,20.40
2022-10-05T12:39:39.960Z,20.40
2022-10-05T12:42:18.753Z,20.40
2022-10-05T12:44:55.217Z,20.40
2022-10-05T12:47:31.027Z,20.40
2022-10-05T12:50:17.257Z,20.30
2022-10-05T12:52:52.485Z,20.40
2022-10-05T12:55:26.311Z,20.60
2022-10-05T12:58:00.967Z,20.50
2022-10-05T13:00:31.916Z,20.50
2022-10-05T13:03:03.554Z,20.60
2022-10-05T13:05:40.661Z,20.50
2022-10-05T13:08:19.115Z,20.30
2022-10-05T13:10:51.143Z,20.30
2022-10-05T13:13:41.528Z,20.30
2022-10-05T13:16:17.633Z,20.20
2022-10-05T13:18:54.532Z,20.10
2022-10-05T13:21:31.556Z,20.10
2022-10-05T13:24:03.268Z,19.90
2022-10-05T13:26:36.007Z,19.60
2022-10-05T13:29:11.763Z,19.60
2022-10-05T13:31:43.735Z,19.60
2022-10-05T13:34:19.930Z,19.60
2022-10-05T13:36:58.592Z,19.70
2022-10-05T13:39:32.959Z,21.40
2022-10-05T13:42:07.615Z,19.70
2022-10-05T13:44:40.198Z,19.60
2022-10-05T13:47:16.875Z,19.60
2022-10-05T13:49:50.499Z,19.60
2022-10-05T13:52:31.038Z,19.30
2022-10-05T13:55:03.371Z,19.30
2022-10-05T13:57:45.237Z,19.30
2022-10-05T14:00:24.226Z,19.30
2022-10-05T14:02:57.100Z,19.30
2022-10-05T14:05:27.689Z,19.40
2022-10-05T14:08:01.383Z,19.40
2022-10-05T14:10:37.707Z,19.40
2022-10-05T14:13:22.555Z,19.30
2022-10-05T14:15:59.742Z,19.20
2022-10-05T14:18:31.874Z,19.20
2022-10-05T14:21:03.801Z,19.20
2022-10-05T14:23:36.380Z,19.10
2022-10-05T14:26:06.329Z,19.10
2022-10-05T14:28:39.433Z,19.20
2022-10-05T14:31:16.387Z,19.20
2022-10-05T14:33:46.529Z,19.30
2022-10-05T14:36:22.470Z,19.30
2022-10-05T14:39:00.706Z,19.30
2022-10-05T14:41:32.602Z,19.30
2022-10-05T14:44:04.245Z,19.20
2022-10-05T14:46:35.417Z,19.30
2022-10-05T14:49:14.355Z,19.30
2022-10-05T14:51:45.147Z,19.30
2022-10-05T14:54:33.005Z,19.10
2022-10-05T14:57:10.430Z,19.00
2022-10-05T14:59:51.658Z,18.90
2022-10-05T15:02:31.966Z,18.90
2022-10-05T15:05:04.128Z,19.00
2022-10-05T15:07:37.762Z,19.00
2022-10-05T15:10:27.099Z,19.00
2022-10-05T15:12:58.700Z,19.00
2022-10-05T15:15:33.011Z,18.90
2022-10-05T15:18:04.235Z,18.90
2022-10-05T15:20:38.775Z,19.00
2022-10-05T15:23:16.315Z,19.00
2022-10-05T15:25:53.827Z,19.00
2022-10-05T15:28:30.458Z,18.90
2022-10-05T15:31:04.220Z,19.00
2022-10-05T15:33:36.887Z,19.00
2022-10-05T15:36:13.275Z,19.00
2022-10-05T15:38:51.000Z,18.90
2022-10-05T15:41:26.663Z,18.90
2022-10-05T15:44:01.551Z,18.90
2022-10-05T15:46:34.486Z,18.90
2022-10-05T15:49:08.672Z,18.90
2022-10-05T15:51:45.305Z,18.80
2022-10-05T15:54:33.962Z,18.80
2022-10-05T15:57:10.039Z,18.80
2022-10-05T15:59:41.788Z,18.80
2022-10-05T16:02:17.460Z,18.70
2022-10-05T16:04:50.588Z,18.70
2022-10-05T16:07:34.579Z,18.70
2022-10-05T16:10:06.785Z,18.80
2022-10-05T16:12:45.675Z,18.80
2022-10-05T16:15:21.943Z,18.70
2022-10-05T16:18:00.403Z,18.60
2022-10-05T16:20:38.662Z,18.60
2022-10-05T16:23:11.403Z,18.60
2022-10-05T16:25:45.763Z,18.50
2022-10-05T16:28:24.605Z,18.50
2022-10-05T16:30:59.061Z,19.10
2022-10-05T16:33:34.495Z,18.60
2022-10-05T16:36:08.954Z,18.50
2022-10-05T16:38:41.672Z,18.50
2022-10-05T16:41:13.876Z,18.50
2022-10-05T16:43:52.250Z,18.50
2022-10-05T16:46:28.041Z,18.50
2022-10-05T16:49:01.989Z,18.60
2022-10-05T16:51:35.429Z,18.60
2022-10-05T16:54:11.883Z,18.60
2022-10-05T16:56:44.075Z,18.60
2022-10-05T16:59:31.443Z,18.50
2022-10-05T17:02:09.653Z,18.50
2022-10-05T17:04:46.006Z,18.50
2022-10-05T17:07:24.306Z,18.50
2022-10-05T17:09:59.729Z,18.50
2022-10-05T17:12:43.040Z,18.50
2022-10-05T17:15:20.781Z,18.50
2022-10-05T17:18:06.948Z,18.50
2022-10-05T17:20:46.089Z,18.50
2022-10-05T17:23:34.594Z,18.50
2022-10-05T17:26:11.078Z,18.50
2022-10-05T17:28:42.449Z,18.50
2022-10-05T17:31:16.332Z,18.50
2022-10-05T17:34:01.036Z,18.50
2022-10-05T17:36:43.608Z,18.50
2022-10-05T17:39:16.193Z,18.50
2022-10-05T17:41:46.863Z,18.50
2022-10-05T17:44:21.974Z,18.50
2022-10-05T17:46:52.956Z,18.60
2022-10-05T17:49:29.728Z,18.60
2022-10-05T17:52:15.508Z,18.80
2022-10-05T17:55:11.319Z,18.60
2022-10-05T17:57:42.059Z,18.60
2022-10-05T18:00:33.039Z,18.60
2022-10-05T18:03:03.141Z,18.60
2022-10-05T18:05:33.937Z,18.60
2022-10-05T18:08:21.478Z,18.60
2022-10-05T18:11:06.195Z,18.60
2022-10-05T18:13:41.837Z,18.60
2022-10-05T18:16:12.721Z,18.60
2022-10-05T18:19:00.525Z,18.70
2022-10-05T18:21:55.427Z,18.70
2022-10-05T18:24:40.606Z,18.70
2022-10-05T18:27:19.022Z,18.70
2022-10-05T18:30:08.883Z,18.70
2022-10-05T18:32:48.261Z,18.80
2022-10-05T18:35:19.391Z,18.80
2022-10-05T18:37:54.582Z,18.80
2022-10-05T18:40:30.236Z,18.80
2022-10-05T18:43:06.122Z,18.80
2022-10-05T18:45:44.721Z,18.80
2022-10-05T18:48:19.722Z,18.60
2022-10-05T18:50:52.855Z,18.30
2022-10-05T18:53:27.191Z,18.00
2022-10-05T18:55:58.992Z,17.80
2022-10-05T18:58:31.646Z,17.60
2022-10-05T19:01:11.259Z,17.40
2022-10-05T19:03:46.590Z,17.40
2022-10-05T19:06:20.374Z,17.30
2022-10-05T19:08:55.086Z,17.30
2022-10-05T19:11:28.635Z,17.20
2022-10-05T19:14:02.875Z,17.10
2022-10-05T19:16:51.747Z,17.10
2022-10-05T19:19:32.389Z,17.10
2022-10-05T19:22:05.960Z,17.00
2022-10-05T19:24:47.777Z,17.10
2022-10-05T19:27:22.056Z,17.00
2022-10-05T19:30:09.787Z,17.10
2022-10-05T19:32:46.697Z,17.10
2022-10-05T19:35:21.686Z,17.10
2022-10-05T19:37:56.715Z,17.10
2022-10-05T19:40:31.706Z,17.00
2022-10-05T19:43:09.161Z,17.00
2022-10-05T19:45:41.711Z,17.00
2022-10-05T19:48:24.073Z,17.00
2022-10-05T19:50:57.913Z,17.10
2022-10-05T19:53:28.777Z,17.10
2022-10-05T19:55:58.665Z,17.10
2022-10-05T19:58:29.809Z,17.20
2022-10-05T20:01:01.068Z,17.20
2022-10-05T20:03:35.489Z,17.20
2022-10-05T20:06:06.806Z,17.20
2022-10-05T20:08:41.966Z,17.20
2022-10-05T20:11:13.429Z,17.20
2022-10-05T20:13:47.697Z,17.10
2022-10-05T20:19:50.838Z,17.10
2022-10-05T20:22:28.068Z,17.10
2022-10-05T20:24:58.620Z,17.10
2022-10-05T20:27:39.167Z,17.20
2022-10-05T20:30:09.874Z,17.20
2022-10-05T20:32:39.667Z,17.20
2022-10-05T20:35:12.205Z,17.20
2022-10-05T20:37:42.146Z,17.20
2022-10-05T20:40:14.953Z,16.90
2022-10-05T20:42:44.788Z,16.70
2022-10-05T20:45:14.823Z,16.50
2022-10-05T20:47:46.822Z,16.30
2022-10-05T20:50:20.647Z,16.20
2022-10-05T20:52:50.906Z,16.20
2022-10-05T20:55:20.825Z,16.10
2022-10-05T20:57:50.522Z,16.10
2022-10-05T21:00:20.399Z,16.10
2022-10-05T21:02:50.163Z,16.00
2022-10-05T21:05:22.635Z,15.90
2022-10-05T21:07:52.395Z,15.90
2022-10-05T21:10:22.333Z,15.90
2022-10-05T21:12:52.159Z,15.90
2022-10-05T21:15:23.673Z,15.90
2022-10-05T21:17:56.815Z,15.90
2022-10-05T21:20:29.201Z,15.90
2022-10-05T21:22:58.961Z,15.90
2022-10-05T21:25:28.807Z,15.90
2022-10-05T21:27:58.586Z,15.90
2022-10-05T21:30:28.468Z,15.90
2022-10-05T21:32:58.202Z,14.60
2022-10-05T21:35:30.583Z,15.90
2022-10-05T21:38:00.323Z,15.90
2022-10-05T21:40:30.096Z,15.80
2022-10-05T21:42:59.838Z,15.80
2022-10-05T21:45:31.059Z,15.80
2022-10-05T21:48:00.939Z,15.70
2022-10-05T21:50:34.718Z,15.70
2022-10-05T21:53:05.451Z,15.80
2022-10-05T21:55:36.508Z,15.80
2022-10-05T21:58:06.598Z,15.90
2022-10-05T22:00:36.383Z,15.80
2022-10-05T22:03:06.868Z,15.80
2022-10-05T22:05:39.387Z,15.80
2022-10-05T22:08:09.163Z,15.80
2022-10-05T22:10:39.090Z,15.70
2022-10-05T22:13:09.812Z,15.70
2022-10-05T22:15:40.263Z,15.70
2022-10-05T22:18:16.165Z,15.60
2022-10-05T22:20:48.985Z,15.60
2022-10-05T22:23:18.825Z,15.60
2022-10-05T22:25:49.431Z,15.60
2022-10-05T22:28:19.331Z,15.50
2022-10-05T22:30:49.196Z,15.50
2022-10-05T22:33:18.933Z,15.50
2022-10-05T22:35:51.317Z,15.50
2022-10-05T22:38:21.060Z,15.50
2022-10-05T22:40:50.775Z,15.40
2022-10-05T22:43:20.568Z,15.30
2022-10-05T22:45:50.369Z,15.40
2022-10-05T22:48:20.182Z,15.30
2022-10-05T22:50:52.558Z,15.40
2022-10-05T22:53:22.396Z,15.40
2022-10-05T22:55:52.107Z,15.30
2022-10-05T22:58:22.111Z,15.30
2022-10-05T23:00:58.391Z,15.20
2022-10-05T23:03:28.904Z,15.20
2022-10-05T23:06:03.655Z,15.20
2022-10-05T23:08:34.025Z,15.30
2022-10-05T23:11:05.058Z,15.10
2022-10-05T23:13:35.292Z,15.20
2022-10-05T23:16:08.749Z,15.20
2022-10-05T23:18:39.071Z,15.20
2022-10-05T23:21:12.913Z,12.70
2022-10-05T23:23:43.728Z,15.10
2022-10-05T23:26:14.345Z,15.10
2022-10-05T23:28:47.423Z,15.10
2022-10-05T23:31:18.436Z,15.00
2022-10-05T23:33:48.319Z,15.50
2022-10-05T23:36:20.973Z,15.00
2022-10-05T23:38:51.189Z,15.10
2022-10-05T23:41:21.410Z,15.10
2022-10-05T23:43:51.254Z,15.00
2022-10-05T23:46:21.095Z,15.10
2022-10-05T23:48:53.313Z,15.00
2022-10-05T23:51:25.667Z,15.00
2022-10-05T23:53:55.469Z,15.00
2022-10-05T23:56:25.253Z,15.00
2022-10-05T23:58:55.052Z,15.00
